createdAt,value
2019-03-23T00:05:00.527Z,30.13
2019-03-23T00:10:07.664Z,24.43
2019-03-23T00:15:14.271Z,23.33
2019-03-23T00:20:20.684Z,26.93
2019-03-23T00:25:27.903Z,31.33
2019-03-23T00:30:41.819Z,24.87
2019-03-23T00:35:47.601Z,29.67
2019-03-23T00:40:53.165Z,25.63
2019-03-23T00:45:58.935Z,24.50
2019-03-23T00:51:04.215Z,29.53
2019-03-23T00:56:09.555Z,42.50
2019-03-23T01:01:15.181Z,24.53
2019-03-23T01:06:20.263Z,29.60
2019-03-23T01:11:25.215Z,28.97
2019-03-23T01:16:31.937Z,31.10
2019-03-23T01:21:37.465Z,24.57
2019-03-23T01:26:42.910Z,31.63
2019-03-23T01:31:48.204Z,30.60
2019-03-23T01:37:02.557Z,31.40
2019-03-23T01:42:01.368Z,28.87
2019-03-23T01:47:06.898Z,31.30
2019-03-23T01:52:14.407Z,26.75
2019-03-23T01:57:20.162Z,32.57
2019-03-23T02:02:26.768Z,29.87
2019-03-23T02:07:32.607Z,31.77
2019-03-23T02:12:38.384Z,30.37
2019-03-23T02:17:45.168Z,33.05
2019-03-23T02:22:52.814Z,30.93
2019-03-23T02:28:00.150Z,34.70
2019-03-23T02:33:06.691Z,28.60
2019-03-23T02:38:12.864Z,29.47
2019-03-23T02:43:18.864Z,29.80
2019-03-23T02:48:24.395Z,28.17
2019-03-23T02:53:30.594Z,35.00
2019-03-23T02:58:35.877Z,32.40
2019-03-23T03:03:41.435Z,30.93
2019-03-23T03:08:47.047Z,29.90
2019-03-23T03:13:55.295Z,32.63
2019-03-23T03:19:02.317Z,34.10
2019-03-23T03:24:07.597Z,29.18
2019-03-23T03:29:13.480Z,32.10
2019-03-23T03:34:18.907Z,34.50
2019-03-23T03:39:24.390Z,28.20
2019-03-23T03:44:32.217Z,29.20
2019-03-23T03:49:38.196Z,34.27
2019-03-23T03:54:44.038Z,40.30
2019-03-23T03:59:49.568Z,42.10
2019-03-23T04:04:54.721Z,36.50
2019-03-23T04:10:00.611Z,30.83
2019-03-23T04:15:06.513Z,31.13
2019-03-23T04:20:12.352Z,33.67
2019-03-23T04:25:21.125Z,30.72
2019-03-23T04:30:26.078Z,31.17
2019-03-23T04:35:31.403Z,34.00
2019-03-23T04:40:37.201Z,31.10
2019-03-23T04:45:43.462Z,35.43
2019-03-23T04:50:48.820Z,33.90
2019-03-23T04:55:55.060Z,27.83
2019-03-23T05:01:00.648Z,28.23
2019-03-23T05:06:06.142Z,37.00
2019-03-23T05:11:12.395Z,31.27
2019-03-23T05:16:18.494Z,29.63
2019-03-23T05:21:24.603Z,30.63
2019-03-23T05:26:30.151Z,35.67
2019-03-23T05:31:37.282Z,36.50
2019-03-23T05:36:46.300Z,37.30
2019-03-23T05:41:55.677Z,36.77
2019-03-23T05:47:07.139Z,33.57
2019-03-23T05:52:12.877Z,32.30
2019-03-23T05:57:19.900Z,36.98
2019-03-23T06:02:25.688Z,37.57
2019-03-23T06:07:33.021Z,34.37
2019-03-23T06:12:39.445Z,33.10
2019-03-23T06:17:45.119Z,37.70
2019-03-23T06:22:53.568Z,34.33
2019-03-23T06:27:58.911Z,38.97
2019-03-23T06:33:05.165Z,35.73
2019-03-23T06:38:10.601Z,39.10
2019-03-23T06:43:17.730Z,37.27
2019-03-23T06:48:23.522Z,24.87
2019-03-23T06:53:45.678Z,16.43
2019-03-23T06:58:51.847Z,19.20
2019-03-23T07:03:57.706Z,23.47
2019-03-23T07:09:04.474Z,19.25
2019-03-23T07:14:10.115Z,19.00
2019-03-23T07:19:15.402Z,21.48
2019-03-23T07:24:20.976Z,17.37
2019-03-23T07:29:29.422Z,15.18
2019-03-23T07:34:35.349Z,15.70
2019-03-23T07:39:41.135Z,17.73
2019-03-23T07:44:46.689Z,17.70
2019-03-23T07:49:52.495Z,18.65
2019-03-23T07:55:13.365Z,16.10
2019-03-23T08:00:22.239Z,23.52
2019-03-23T08:05:27.705Z,20.00
2019-03-23T08:10:34.387Z,21.17
2019-03-23T08:15:40.086Z,16.95
2019-03-23T08:20:48.574Z,19.43
2019-03-23T08:25:54.119Z,18.37
2019-03-23T08:31:01.951Z,21.10
2019-03-23T08:36:07.044Z,20.92
2019-03-23T08:41:13.279Z,31.42
2019-03-23T08:46:19.435Z,25.55
2019-03-23T08:51:27.498Z,19.77
2019-03-23T08:56:32.926Z,22.40
2019-03-23T09:01:38.434Z,21.68
2019-03-23T09:06:44.471Z,22.93
2019-03-23T09:11:50.220Z,23.40
2019-03-23T09:16:55.723Z,23.17
2019-03-23T09:22:01.115Z,28.23
2019-03-23T09:27:07.867Z,22.77
2019-03-23T09:32:13.067Z,23.97
2019-03-23T09:37:18.291Z,21.23
2019-03-23T09:42:26.127Z,30.68
2019-03-23T09:47:31.690Z,30.17
2019-03-23T09:52:38.054Z,28.30
2019-03-23T09:57:43.575Z,29.48
2019-03-23T10:02:48.602Z,30.88
2019-03-23T10:07:56.548Z,31.82
2019-03-23T10:13:02.242Z,29.95
2019-03-23T10:18:10.503Z,31.02
2019-03-23T10:23:16.190Z,28.92
2019-03-23T10:28:23.399Z,29.57
2019-03-23T10:33:28.457Z,28.12
2019-03-23T10:38:34.752Z,35.28
2019-03-23T10:43:39.815Z,34.45
2019-03-23T10:48:44.970Z,34.70
2019-03-23T10:53:50.472Z,31.10
2019-03-23T10:58:55.552Z,36.00
2019-03-23T11:04:01.607Z,32.98
2019-03-23T11:09:08.782Z,33.78
2019-03-23T11:14:17.958Z,31.60
2019-03-23T11:19:23.322Z,35.00
2019-03-23T11:24:28.484Z,35.05
2019-03-23T11:29:34.004Z,32.17
2019-03-23T11:34:41.673Z,30.37
2019-03-23T11:39:46.687Z,31.30
2019-03-23T11:44:52.276Z,32.98
2019-03-23T11:50:00.129Z,27.80
2019-03-23T11:55:06.151Z,28.52
2019-03-23T12:00:12.693Z,29.85
2019-03-23T12:05:17.819Z,30.70
2019-03-23T12:10:23.124Z,27.15
2019-03-23T12:15:29.804Z,27.75
2019-03-23T12:20:36.190Z,26.73
2019-03-23T12:25:41.934Z,20.52
2019-03-23T12:30:47.240Z,22.60
2019-03-23T12:35:52.881Z,24.20
2019-03-23T12:41:09.973Z,25.43
2019-03-23T12:46:07.080Z,20.37
2019-03-23T12:51:12.406Z,25.32
2019-03-23T12:56:18.092Z,25.70
2019-03-23T13:01:23.662Z,27.62
2019-03-23T13:06:28.884Z,28.95
2019-03-23T13:11:35.446Z,30.82
2019-03-23T13:16:41.241Z,27.73
2019-03-23T13:21:46.847Z,27.98
2019-03-23T13:26:52.660Z,30.83
2019-03-23T13:31:57.965Z,28.57
2019-03-23T13:37:03.283Z,28.98
2019-03-23T13:42:09.310Z,32.55
2019-03-23T13:47:18.779Z,40.48
2019-03-23T13:52:24.166Z,36.40
2019-03-23T13:57:29.202Z,42.00
2019-03-23T14:02:35.296Z,45.63
2019-03-23T14:07:50.093Z,46.75
2019-03-23T14:12:58.119Z,51.13
2019-03-23T14:18:09.293Z,50.10
2019-03-23T14:23:14.693Z,48.87
2019-03-23T14:28:22.446Z,55.38
2019-03-23T14:33:29.126Z,49.98
2019-03-23T14:38:34.167Z,52.60
2019-03-23T14:43:39.671Z,55.17
2019-03-23T14:48:46.698Z,55.40
2019-03-23T14:53:53.862Z,54.70
2019-03-23T14:58:59.755Z,52.33
2019-03-23T15:04:14.268Z,54.73
2019-03-23T15:09:23.712Z,50.12
2019-03-23T15:14:29.202Z,55.88
2019-03-23T15:19:34.387Z,54.13
2019-03-23T15:24:39.816Z,55.65
2019-03-23T15:29:44.975Z,66.22
2019-03-23T15:34:50.076Z,53.10
2019-03-23T15:39:56.504Z,46.50
2019-03-23T15:45:02.889Z,53.63
2019-03-23T15:50:08.534Z,46.53
2019-03-23T15:55:16.261Z,49.65
2019-03-23T16:00:23.145Z,45.52
2019-03-23T16:05:28.555Z,47.70
2019-03-23T16:10:34.573Z,45.92
2019-03-23T16:15:39.841Z,47.38
2019-03-23T16:20:45.206Z,47.78
2019-03-23T16:25:50.864Z,46.65
2019-03-23T16:30:56.089Z,46.20
2019-03-23T16:36:03.488Z,47.08
2019-03-23T16:41:07.912Z,47.05
2019-03-23T16:46:13.368Z,48.23
2019-03-23T16:51:19.014Z,42.27
2019-03-23T16:56:24.059Z,47.10
2019-03-23T17:01:30.601Z,46.37
2019-03-23T17:06:45.813Z,44.73
2019-03-23T17:11:43.096Z,45.13
2019-03-23T17:16:48.891Z,43.43
2019-03-23T17:21:53.959Z,45.50
2019-03-23T17:26:59.185Z,50.80
2019-03-23T17:32:06.451Z,43.77
2019-03-23T17:37:11.468Z,54.97
2019-03-23T17:42:17.185Z,53.00
2019-03-23T17:47:22.793Z,63.80
2019-03-23T17:52:33.674Z,72.93
2019-03-23T17:57:39.062Z,60.23
2019-03-23T18:02:46.843Z,57.67
2019-03-23T18:07:52.664Z,46.87
2019-03-23T18:12:58.422Z,46.80
2019-03-23T18:18:03.423Z,47.13
2019-03-23T18:23:09.315Z,45.70
2019-03-23T18:28:15.043Z,51.37
2019-03-23T18:33:20.572Z,46.70
2019-03-23T18:38:25.734Z,49.38
2019-03-23T18:43:31.043Z,45.40
2019-03-23T18:48:36.458Z,45.00
2019-03-23T18:53:42.403Z,44.30
2019-03-23T18:58:47.302Z,45.10
2019-03-23T19:03:53.365Z,50.73
2019-03-23T19:08:59.982Z,43.63
2019-03-23T19:14:05.079Z,56.33
2019-03-23T19:19:10.140Z,41.47
2019-03-23T19:24:16.770Z,48.50
2019-03-23T19:29:21.866Z,38.37
2019-03-23T19:34:26.996Z,41.00
2019-03-23T19:39:32.543Z,39.30
2019-03-23T19:44:38.447Z,39.13
2019-03-23T19:49:46.802Z,37.57
2019-03-23T19:54:52.522Z,38.03
2019-03-23T19:59:57.789Z,34.77
2019-03-23T20:05:03.536Z,36.93
2019-03-23T20:10:10.234Z,40.80
2019-03-23T20:15:16.001Z,38.20
2019-03-23T20:20:22.109Z,44.57
2019-03-23T20:25:28.002Z,43.63
2019-03-23T20:30:33.232Z,35.37
2019-03-23T20:35:40.242Z,34.95
2019-03-23T20:40:53.302Z,37.67
2019-03-23T20:45:59.041Z,42.83
2019-03-23T20:51:04.965Z,42.03
2019-03-23T20:56:16.744Z,45.77
2019-03-23T21:01:22.181Z,45.03
2019-03-23T21:06:27.591Z,45.30
2019-03-23T21:11:33.216Z,48.03
2019-03-23T21:16:39.278Z,45.07
2019-03-23T21:21:45.264Z,53.70
2019-03-23T21:26:50.734Z,47.77
2019-03-23T21:31:55.870Z,40.83
2019-03-23T21:37:01.477Z,42.00
2019-03-23T21:42:08.065Z,45.33
2019-03-23T21:47:15.402Z,43.60
2019-03-23T21:52:20.960Z,43.87
2019-03-23T21:57:27.116Z,39.40
2019-03-23T22:02:34.335Z,41.90
2019-03-23T22:07:42.489Z,38.37
2019-03-23T22:12:50.347Z,43.67
2019-03-23T22:17:56.472Z,38.83
2019-03-23T22:23:02.388Z,40.90
2019-03-23T22:28:09.497Z,48.80
2019-03-23T22:33:14.558Z,35.10
2019-03-23T22:38:20.747Z,39.67
2019-03-23T22:43:29.387Z,35.97
2019-03-23T22:48:37.573Z,43.43
2019-03-23T22:53:44.014Z,39.47
2019-03-23T22:58:52.671Z,51.57
2019-03-23T23:03:59.159Z,43.43
2019-03-23T23:09:06.203Z,46.60
2019-03-23T23:14:11.779Z,45.63
2019-03-23T23:19:17.093Z,43.50
2019-03-23T23:24:22.953Z,46.90
2019-03-23T23:29:29.188Z,37.73
2019-03-23T23:34:34.857Z,47.00
2019-03-23T23:39:39.997Z,46.33
2019-03-23T23:44:45.391Z,45.30
2019-03-23T23:49:50.656Z,49.87
2019-03-23T23:54:55.794Z,40.90
